Time;durP1;ratioP1;P1;durP2;ratioP2;P2;SDS_P1;SDS_P2;PMS_P1;PMS_P2;Temp;Humidity;BMP_temperature;BMP_pressure;BME280_temperature;BME280_humidity;BME280_pressure;Samples;Min_cycle;Max_cycle;Signal;HPM_P1;HPM_P2
2022/10/04 00:02:16;;;;;;;7.80;5.47;;;;;;;;;;5082279;28;20216;-75
2022/10/04 00:04:44;;;;;;;7.57;5.60;;;;;;;;;;5080667;28;20181;-75
2022/10/04 00:07:10;;;;;;;7.67;5.20;;;;;;;;;;5074288;28;20726;-76
2022/10/04 00:09:45;;;;;;;8.07;5.70;;;;;;;;;;5075752;28;20188;-76
2022/10/04 00:12:23;;;;;;;6.23;4.63;;;;;;;;;;5088596;28;20692;-75
2022/10/04 00:14:49;;;;;;;7.03;4.67;;;;;;;;;;5083017;28;20191;-76
2022/10/04 00:17:21;;;;;;;8.83;5.37;;;;;;;;;;5077464;28;20224;-75
2022/10/04 00:19:48;;;;;;;7.27;5.73;;;;;;;;;;5083047;28;20181;-75
2022/10/04 00:22:34;;;;;;;7.67;5.30;;;;;;;;;;5084239;28;20201;-76
2022/10/04 00:25:07;;;;;;;7.60;4.87;;;;;;;;;;5061133;28;20534;-76
2022/10/04 00:27:34;;;;;;;7.67;5.20;;;;;;;;;;5087456;28;20222;-76
2022/10/04 00:30:03;;;;;;;8.60;5.50;;;;;;;;;;5088254;28;20171;-77
2022/10/04 00:32:31;;;;;;;6.80;5.17;;;;;;;;;;5083151;28;20185;-75
2022/10/04 00:34:59;;;;;;;7.60;5.10;;;;;;;;;;5065997;28;20690;-75
2022/10/04 00:37:26;;;;;;;5.53;4.27;;;;;;;;;;5087772;28;20188;-75
2022/10/04 00:40:05;;;;;;;4.80;4.00;;;;;;;;;;5088377;28;20180;-75
2022/10/04 00:42:37;;;;;;;4.77;3.83;;;;;;;;;;5082539;28;20287;-76
2022/10/04 00:45:10;;;;;;;3.90;3.50;;;;;;;;;;5082236;28;20169;-76
2022/10/04 00:47:46;;;;;;;5.73;3.80;;;;;;;;;;5084096;28;20865;-76
2022/10/04 00:50:16;;;;;;;4.23;3.60;;;;;;;;;;5073689;28;20172;-75
2022/10/04 00:52:47;;;;;;;3.90;3.50;;;;;;;;;;5085203;28;20184;-75
2022/10/04 00:55:24;;;;;;;3.20;2.90;;;;;;;;;;5083793;28;20173;-76
2022/10/04 00:57:52;;;;;;;4.03;3.63;;;;;;;;;;5082201;28;20244;-76
2022/10/04 01:00:20;;;;;;;4.37;3.97;;;;;;;;;;5087873;28;20198;-75
2022/10/04 01:02:52;;;;;;;4.20;3.80;;;;;;;;;;5065855;28;20212;-77
2022/10/04 01:05:26;;;;;;;5.40;4.53;;;;;;;;;;5086434;28;20191;-75
2022/10/04 01:07:58;;;;;;;6.80;4.60;;;;;;;;;;5067473;28;20172;-76
2022/10/04 01:10:28;;;;;;;7.47;5.30;;;;;;;;;;5080806;28;20222;-76
2022/10/04 01:12:58;;;;;;;9.70;5.90;;;;;;;;;;5071948;28;20260;-76
2022/10/04 01:15:27;;;;;;;7.80;5.47;;;;;;;;;;5076262;28;20725;-76
2022/10/04 01:18:11;;;;;;;7.60;5.97;;;;;;;;;;5068694;28;20184;-75
2022/10/04 01:20:39;;;;;;;6.80;5.37;;;;;;;;;;5087430;28;20200;-75
2022/10/04 01:23:08;;;;;;;7.97;4.93;;;;;;;;;;5084293;28;20704;-75
2022/10/04 01:25:51;;;;;;;6.37;5.03;;;;;;;;;;5085007;28;20184;-76
2022/10/04 01:28:17;;;;;;;6.60;5.30;;;;;;;;;;5079087;28;20694;-76
2022/10/04 01:30:44;;;;;;;6.47;5.10;;;;;;;;;;5071545;28;20747;-76
2022/10/04 01:33:11;;;;;;;5.90;4.60;;;;;;;;;;5085779;28;20173;-76
2022/10/04 01:35:38;;;;;;;5.13;4.40;;;;;;;;;;5091915;28;20237;-75
2022/10/04 01:38:06;;;;;;;4.83;3.33;;;;;;;;;;5093842;28;20423;-75
2022/10/04 01:40:33;;;;;;;3.93;3.53;;;;;;;;;;5093556;28;20207;-76
2022/10/04 01:43:08;;;;;;;5.17;3.73;;;;;;;;;;5092350;28;20207;-75
2022/10/04 01:45:34;;;;;;;4.37;3.97;;;;;;;;;;5091267;28;20262;-75
2022/10/04 01:48:01;;;;;;;6.03;3.77;;;;;;;;;;5089583;28;20691;-74
2022/10/04 01:50:47;;;;;;;4.80;4.30;;;;;;;;;;5084599;28;20776;-76
2022/10/04 01:53:23;;;;;;;5.60;4.20;;;;;;;;;;5086017;28;20176;-74
2022/10/04 01:56:03;;;;;;;7.17;4.23;;;;;;;;;;5083738;28;20202;-75
2022/10/04 01:58:38;;;;;;;6.07;4.63;;;;;;;;;;5086828;28;20192;-75
2022/10/04 02:01:23;;;;;;;6.57;5.20;;;;;;;;;;5081601;28;20203;-74
2022/10/04 02:04:13;;;;;;;10.73;5.47;;;;;;;;;;5085331;28;20181;-75
2022/10/04 02:06:41;;;;;;;8.43;5.43;;;;;;;;;;5068894;28;20203;-75
2022/10/04 02:09:13;;;;;;;8.33;5.00;;;;;;;;;;5090910;28;20867;-75
2022/10/04 02:11:40;;;;;;;6.00;4.50;;;;;;;;;;5089101;28;20196;-75
2022/10/04 02:14:14;;;;;;;6.23;4.23;;;;;;;;;;5090670;28;20718;-74
2022/10/04 02:16:41;;;;;;;4.83;3.90;;;;;;;;;;5089207;28;20209;-75
2022/10/04 02:19:08;;;;;;;3.57;3.17;;;;;;;;;;5085767;28;20372;-74
2022/10/04 02:21:36;;;;;;;5.20;4.10;;;;;;;;;;5073058;28;20311;-74
2022/10/04 02:24:02;;;;;;;4.60;3.70;;;;;;;;;;5088945;28;20207;-76
2022/10/04 02:26:28;;;;;;;4.67;3.73;;;;;;;;;;5066113;28;20628;-74
2022/10/04 02:28:54;;;;;;;4.87;3.73;;;;;;;;;;5093760;28;20176;-75
2022/10/04 02:34:10;;;;;;;6.93;4.00;;;;;;;;;;5090371;28;20655;-74
2022/10/04 02:36:37;;;;;;;8.27;5.30;;;;;;;;;;5084537;28;20193;-74
2022/10/04 02:39:20;;;;;;;5.77;4.80;;;;;;;;;;5088119;28;20293;-75
2022/10/04 02:41:47;;;;;;;5.57;3.80;;;;;;;;;;5077890;28;20216;-74
2022/10/04 02:44:23;;;;;;;5.00;4.03;;;;;;;;;;5052264;28;20193;-75
2022/10/04 02:47:03;;;;;;;6.37;3.57;;;;;;;;;;5074621;28;20603;-75
2022/10/04 02:49:31;;;;;;;5.87;4.03;;;;;;;;;;5073252;28;20290;-74
2022/10/04 02:52:01;;;;;;;5.40;3.50;;;;;;;;;;5089753;28;20218;-75
2022/10/04 02:54:34;;;;;;;4.50;3.90;;;;;;;;;;5086265;28;20287;-75
2022/10/04 02:57:00;;;;;;;6.43;4.90;;;;;;;;;;5080265;28;20187;-74
2022/10/04 02:59:27;;;;;;;4.93;4.00;;;;;;;;;;5088332;28;20202;-75
2022/10/04 03:01:53;;;;;;;4.60;4.07;;;;;;;;;;5081627;28;20212;-75
2022/10/04 03:04:22;;;;;;;6.40;3.97;;;;;;;;;;5085883;28;20196;-74
2022/10/04 03:06:48;;;;;;;6.27;5.00;;;;;;;;;;5087414;28;20180;-75
2022/10/04 03:09:15;;;;;;;5.13;4.43;;;;;;;;;;5084674;28;20211;-75
2022/10/04 03:11:42;;;;;;;5.83;4.87;;;;;;;;;;5073638;28;20220;-74
2022/10/04 03:14:12;;;;;;;6.50;4.53;;;;;;;;;;5077657;28;20224;-75
2022/10/04 03:16:40;;;;;;;5.10;4.27;;;;;;;;;;5083041;28;20722;-75
2022/10/04 03:19:07;;;;;;;5.50;4.20;;;;;;;;;;5084112;28;20793;-75
2022/10/04 03:21:34;;;;;;;7.23;4.40;;;;;;;;;;5088641;28;20208;-75
2022/10/04 03:24:01;;;;;;;4.40;3.67;;;;;;;;;;5081206;28;20262;-75
2022/10/04 03:26:38;;;;;;;9.80;6.20;;;;;;;;;;5077776;28;20708;-75
2022/10/04 03:29:09;;;;;;;6.30;4.10;;;;;;;;;;5074260;28;20185;-75
2022/10/04 03:31:39;;;;;;;6.40;4.60;;;;;;;;;;5083537;28;20205;-74
2022/10/04 03:34:05;;;;;;;5.77;3.67;;;;;;;;;;5089129;28;20215;-75
2022/10/04 03:36:34;;;;;;;5.73;3.97;;;;;;;;;;5081829;28;20697;-74
2022/10/04 03:39:00;;;;;;;6.80;3.70;;;;;;;;;;5085620;28;20195;-74
2022/10/04 03:41:26;;;;;;;6.97;3.97;;;;;;;;;;5084822;28;20298;-74
2022/10/04 03:43:54;;;;;;;4.43;3.90;;;;;;;;;;5076414;28;20229;-74
2022/10/04 03:46:22;;;;;;;3.97;3.47;;;;;;;;;;5085229;28;20897;-75
2022/10/04 03:48:53;;;;;;;5.93;3.70;;;;;;;;;;5088174;28;20603;-75
2022/10/04 03:51:23;;;;;;;4.93;3.40;;;;;;;;;;5086938;28;20283;-74
2022/10/04 03:53:52;;;;;;;4.97;3.43;;;;;;;;;;5081939;28;20196;-76
2022/10/04 03:56:34;;;;;;;4.40;3.77;;;;;;;;;;5087752;28;20200;-74
2022/10/04 03:59:05;;;;;;;4.40;3.77;;;;;;;;;;5081562;28;20196;-74
2022/10/04 04:01:37;;;;;;;5.20;3.90;;;;;;;;;;5084287;28;20222;-74
2022/10/04 04:04:14;;;;;;;4.73;3.87;;;;;;;;;;5076370;28;20182;-74
2022/10/04 04:06:45;;;;;;;4.47;3.90;;;;;;;;;;5077427;28;20271;-75
2022/10/04 04:09:19;;;;;;;8.83;5.00;;;;;;;;;;5074304;28;20189;-74
2022/10/04 04:11:47;;;;;;;6.50;5.10;;;;;;;;;;5082586;28;20595;-75
2022/10/04 04:14:15;;;;;;;4.33;3.43;;;;;;;;;;5082881;28;20268;-74
2022/10/04 04:16:41;;;;;;;5.00;4.03;;;;;;;;;;5080926;28;20177;-74
2022/10/04 04:19:12;;;;;;;6.43;4.93;;;;;;;;;;5077912;28;20204;-74
2022/10/04 04:21:39;;;;;;;7.57;4.80;;;;;;;;;;5081531;28;20247;-75
2022/10/04 04:24:08;;;;;;;5.93;4.10;;;;;;;;;;5085615;28;20276;-75
2022/10/04 04:26:41;;;;;;;10.47;4.37;;;;;;;;;;5081155;28;20878;-74
2022/10/04 04:29:25;;;;;;;6.47;4.10;;;;;;;;;;5082904;28;20715;-74
2022/10/04 04:31:55;;;;;;;6.53;4.57;;;;;;;;;;5062764;28;20211;-75
2022/10/04 04:34:23;;;;;;;7.60;4.43;;;;;;;;;;5079977;28;20188;-74
2022/10/04 04:36:51;;;;;;;6.10;4.07;;;;;;;;;;5078291;28;20602;-74
2022/10/04 04:39:36;;;;;;;4.60;4.17;;;;;;;;;;5076047;28;20727;-75
2022/10/04 04:42:23;;;;;;;6.73;4.43;;;;;;;;;;5075516;28;20263;-74
2022/10/04 04:44:53;;;;;;;5.07;3.70;;;;;;;;;;5076653;28;20393;-75
2022/10/04 04:47:43;;;;;;;5.43;4.20;;;;;;;;;;5085019;28;20177;-74
2022/10/04 04:50:26;;;;;;;4.93;3.72;;;;;;;;;;5078504;28;20508;-74
2022/10/04 04:53:01;;;;;;;5.17;3.40;;;;;;;;;;5082474;28;20188;-74
2022/10/04 04:55:28;;;;;;;4.83;3.97;;;;;;;;;;5084549;28;20185;-74
2022/10/04 04:57:56;;;;;;;5.60;4.03;;;;;;;;;;5083593;28;20192;-75
2022/10/04 05:00:28;;;;;;;4.87;3.57;;;;;;;;;;5087434;28;20192;-75
2022/10/04 05:02:59;;;;;;;6.23;4.50;;;;;;;;;;5081604;28;20445;-74
2022/10/04 05:05:32;;;;;;;5.63;3.70;;;;;;;;;;5087684;28;20191;-74
2022/10/04 05:08:13;;;;;;;5.20;4.03;;;;;;;;;;5081305;28;20270;-75
2022/10/04 05:10:45;;;;;;;5.37;4.00;;;;;;;;;;5072329;28;20258;-74
2022/10/04 05:13:12;;;;;;;5.87;3.90;;;;;;;;;;5086917;28;20176;-74
2022/10/04 05:15:39;;;;;;;5.43;4.30;;;;;;;;;;5082799;28;20184;-74
2022/10/04 05:18:16;;;;;;;4.47;4.00;;;;;;;;;;5083157;28;20245;-74
2022/10/04 05:20:46;;;;;;;8.00;5.37;;;;;;;;;;5083287;28;20242;-75
2022/10/04 05:23:12;;;;;;;6.28;4.95;;;;;;;;;;5081826;28;20784;-78
2022/10/04 05:25:38;;;;;;;6.67;4.63;;;;;;;;;;5083069;28;20229;-74
2022/10/04 05:28:05;;;;;;;6.00;4.90;;;;;;;;;;5086631;28;20234;-74
2022/10/04 05:30:43;;;;;;;10.70;5.30;;;;;;;;;;5087546;28;20197;-74
2022/10/04 05:33:21;;;;;;;8.43;5.17;;;;;;;;;;5069518;28;20219;-75
2022/10/04 05:36:01;;;;;;;5.90;5.10;;;;;;;;;;5067691;28;20245;-74
2022/10/04 05:38:35;;;;;;;10.10;5.33;;;;;;;;;;5085709;28;20208;-72
2022/10/04 05:41:07;;;;;;;8.93;5.30;;;;;;;;;;5087080;28;20611;-84
2022/10/04 05:43:43;;;;;;;10.73;6.77;;;;;;;;;;5068222;28;20267;-73
2022/10/04 05:46:15;;;;;;;11.67;8.07;;;;;;;;;;5080542;28;20185;-73
2022/10/04 05:48:42;;;;;;;10.20;7.70;;;;;;;;;;5067682;28;20172;-73
2022/10/04 05:51:22;;;;;;;8.33;6.90;;;;;;;;;;5083802;28;20591;-73
2022/10/04 05:53:49;;;;;;;11.40;7.80;;;;;;;;;;5078434;28;20195;-73
2022/10/04 05:56:15;;;;;;;9.77;7.40;;;;;;;;;;5080932;28;20173;-73
2022/10/04 05:58:52;;;;;;;9.73;6.80;;;;;;;;;;5088433;28;20180;-79
2022/10/04 06:01:34;;;;;;;9.57;7.10;;;;;;;;;;5054956;28;20264;-76
2022/10/04 06:04:19;;;;;;;14.00;8.80;;;;;;;;;;5077007;28;20816;-74
2022/10/04 06:06:51;;;;;;;12.07;9.00;;;;;;;;;;5087140;28;20729;-75
2022/10/04 06:09:37;;;;;;;12.80;8.10;;;;;;;;;;5087559;28;20184;-75
2022/10/04 06:12:09;;;;;;;10.50;7.43;;;;;;;;;;5086746;28;20265;-71
2022/10/04 06:14:45;;;;;;;11.27;7.73;;;;;;;;;;5092977;28;20187;-82
2022/10/04 06:17:19;;;;;;;8.70;6.93;;;;;;;;;;5089011;28;20195;-79
2022/10/04 06:19:58;;;;;;;8.10;6.20;;;;;;;;;;5046606;28;20201;-75
2022/10/04 06:22:27;;;;;;;12.27;6.87;;;;;;;;;;5072381;28;20899;-74
2022/10/04 06:25:02;;;;;;;8.03;6.30;;;;;;;;;;5082580;28;20181;-75
2022/10/04 06:27:35;;;;;;;9.40;7.07;;;;;;;;;;5081896;28;20733;-75
2022/10/04 06:30:02;;;;;;;9.97;6.47;;;;;;;;;;5087018;28;20185;-79
2022/10/04 06:32:46;;;;;;;11.37;7.10;;;;;;;;;;5082539;28;20287;-76
2022/10/04 06:35:30;;;;;;;8.57;6.67;;;;;;;;;;5055760;28;20785;-74
2022/10/04 06:38:07;;;;;;;9.33;6.57;;;;;;;;;;5083004;28;20669;-73
2022/10/04 06:40:51;;;;;;;9.83;6.80;;;;;;;;;;5090501;28;20208;-74
2022/10/04 06:43:17;;;;;;;8.37;6.77;;;;;;;;;;5089601;28;20239;-74
2022/10/04 06:45:58;;;;;;;8.00;6.57;;;;;;;;;;5087634;28;20340;-74
2022/10/04 06:48:33;;;;;;;8.17;6.23;;;;;;;;;;5084825;28;20168;-74
2022/10/04 06:51:04;;;;;;;8.83;6.53;;;;;;;;;;5082341;28;22374;-74
2022/10/04 06:53:30;;;;;;;8.87;6.30;;;;;;;;;;5089934;28;20251;-74
2022/10/04 06:56:05;;;;;;;8.50;6.93;;;;;;;;;;5089564;28;20666;-75
2022/10/04 06:58:35;;;;;;;7.90;6.73;;;;;;;;;;5071968;28;20224;-74
2022/10/04 07:01:19;;;;;;;8.97;7.00;;;;;;;;;;5081780;28;20211;-74
2022/10/04 07:03:49;;;;;;;8.73;6.80;;;;;;;;;;5084742;28;20177;-74
2022/10/04 07:06:21;;;;;;;8.00;6.40;;;;;;;;;;5078836;28;20184;-74
2022/10/04 07:08:51;;;;;;;8.37;6.90;;;;;;;;;;5085188;28;20177;-77
2022/10/04 07:11:17;;;;;;;8.77;6.57;;;;;;;;;;5085189;28;20377;-74
2022/10/04 07:13:46;;;;;;;8.63;6.53;;;;;;;;;;5085187;28;20185;-74
2022/10/04 07:16:15;;;;;;;7.47;6.60;;;;;;;;;;5079949;28;20666;-73
2022/10/04 07:19:00;;;;;;;12.87;6.63;;;;;;;;;;5083981;28;20189;-73
2022/10/04 07:21:33;;;;;;;7.63;6.83;;;;;;;;;;5076111;28;20243;-74
2022/10/04 07:24:02;;;;;;;7.97;6.57;;;;;;;;;;5079587;28;20215;-74
2022/10/04 07:26:46;;;;;;;6.53;5.70;;;;;;;;;;5063925;28;20195;-74
2022/10/04 07:29:32;;;;;;;9.60;6.70;;;;;;;;;;5052858;28;20205;-74
2022/10/04 07:32:04;;;;;;;10.97;7.30;;;;;;;;;;5083778;28;20291;-74
2022/10/04 07:34:42;;;;;;;8.60;7.07;;;;;;;;;;5088072;28;20758;-74
2022/10/04 07:37:13;;;;;;;10.63;7.73;;;;;;;;;;5088705;28;20180;-74
2022/10/04 07:39:57;;;;;;;7.07;6.37;;;;;;;;;;5081268;28;20271;-73
2022/10/04 07:42:27;;;;;;;8.57;7.30;;;;;;;;;;5070277;28;20207;-73
2022/10/04 07:44:58;;;;;;;9.80;7.37;;;;;;;;;;5089371;28;20189;-74
2022/10/04 07:47:26;;;;;;;9.77;7.17;;;;;;;;;;5086082;28;20993;-74
2022/10/04 07:49:53;;;;;;;8.10;6.90;;;;;;;;;;5088569;28;20684;-74
2022/10/04 07:52:38;;;;;;;7.40;6.50;;;;;;;;;;5079468;28;20240;-74
2022/10/04 07:55:06;;;;;;;9.17;7.10;;;;;;;;;;5082696;28;20203;-74
2022/10/04 07:57:45;;;;;;;8.90;7.53;;;;;;;;;;5087176;28;20271;-74
2022/10/04 08:00:16;;;;;;;11.10;7.00;;;;;;;;;;5087247;28;20222;-74
2022/10/04 08:02:58;;;;;;;9.13;7.80;;;;;;;;;;5078922;28;20930;-74
2022/10/04 08:05:50;;;;;;;10.27;7.10;;;;;;;;;;5087371;28;20196;-74
2022/10/04 08:08:35;;;;;;;7.93;6.80;;;;;;;;;;5070526;28;20691;-74
2022/10/04 08:11:23;;;;;;;8.87;6.80;;;;;;;;;;5081069;28;20723;-74
2022/10/04 08:14:00;;;;;;;9.57;6.90;;;;;;;;;;5076733;28;20346;-74
2022/10/04 08:16:30;;;;;;;7.60;6.67;;;;;;;;;;5063303;28;21803;-74
2022/10/04 08:19:05;;;;;;;8.53;6.53;;;;;;;;;;5079881;28;20196;-74
2022/10/04 08:21:37;;;;;;;8.03;6.43;;;;;;;;;;5083353;28;20199;-74
2022/10/04 08:24:15;;;;;;;8.83;7.20;;;;;;;;;;5083279;28;20181;-74
2022/10/04 08:26:52;;;;;;;8.13;7.10;;;;;;;;;;5074316;28;20177;-74
2022/10/04 08:29:42;;;;;;;8.17;7.37;;;;;;;;;;5085494;28;20188;-74
2022/10/04 08:32:25;;;;;;;10.63;7.83;;;;;;;;;;5084276;28;20292;-74
2022/10/04 08:35:15;;;;;;;8.90;7.13;;;;;;;;;;5083096;28;20613;-74
2022/10/04 08:37:59;;;;;;;9.00;7.53;;;;;;;;;;5075902;28;20181;-74
2022/10/04 08:40:32;;;;;;;8.67;7.63;;;;;;;;;;5081757;28;20279;-74
2022/10/04 08:43:19;;;;;;;11.33;7.37;;;;;;;;;;5075291;28;20216;-74
2022/10/04 08:46:03;;;;;;;8.80;7.73;;;;;;;;;;5082588;28;20177;-74
2022/10/04 08:48:32;;;;;;;9.23;7.80;;;;;;;;;;5086929;28;20180;-74
2022/10/04 08:51:07;;;;;;;7.50;6.67;;;;;;;;;;5087447;28;20201;-74
2022/10/04 08:53:37;;;;;;;8.60;7.00;;;;;;;;;;5086481;28;20583;-75
2022/10/04 08:56:12;;;;;;;10.23;7.03;;;;;;;;;;5083033;28;20230;-74
2022/10/04 08:58:38;;;;;;;10.77;7.20;;;;;;;;;;5077299;28;20210;-74
2022/10/04 09:01:31;;;;;;;9.57;6.83;;;;;;;;;;5083248;28;21023;-74
2022/10/04 09:04:12;;;;;;;8.20;6.80;;;;;;;;;;5075670;28;20180;-74
2022/10/04 09:06:44;;;;;;;8.97;7.37;;;;;;;;;;5075539;28;20187;-74
2022/10/04 09:09:29;;;;;;;13.17;9.03;;;;;;;;;;5082480;28;20184;-74
2022/10/04 09:11:59;;;;;;;15.03;9.03;;;;;;;;;;5079704;28;20208;-74
2022/10/04 09:14:26;;;;;;;12.07;8.37;;;;;;;;;;5079510;28;20187;-74
2022/10/04 09:17:13;;;;;;;11.23;8.83;;;;;;;;;;5079537;28;20184;-74
2022/10/04 09:19:47;;;;;;;8.53;7.53;;;;;;;;;;5074107;28;20181;-74
2022/10/04 09:22:39;;;;;;;11.43;8.23;;;;;;;;;;5077492;28;20204;-74
2022/10/04 09:25:25;;;;;;;9.27;7.40;;;;;;;;;;5055717;28;20289;-73
2022/10/04 09:28:14;;;;;;;9.67;7.93;;;;;;;;;;5064973;28;20183;-73
2022/10/04 09:30:52;;;;;;;11.20;8.53;;;;;;;;;;5073300;28;20209;-73
2022/10/04 09:33:24;;;;;;;11.87;9.10;;;;;;;;;;5057049;28;20227;-73
2022/10/04 09:36:06;;;;;;;12.37;9.37;;;;;;;;;;5080284;28;20479;-73
2022/10/04 09:38:44;;;;;;;13.87;9.50;;;;;;;;;;5087197;28;20212;-73
2022/10/04 09:41:26;;;;;;;12.67;8.03;;;;;;;;;;5059256;28;20236;-73
2022/10/04 09:44:12;;;;;;;10.57;8.27;;;;;;;;;;5075283;28;20176;-73
2022/10/04 09:46:51;;;;;;;11.97;8.57;;;;;;;;;;5074721;28;20184;-74
2022/10/04 09:49:36;;;;;;;11.10;8.67;;;;;;;;;;5065577;28;20699;-73
2022/10/04 09:52:26;;;;;;;11.93;8.33;;;;;;;;;;5080950;28;20203;-73
2022/10/04 09:55:17;;;;;;;10.30;7.60;;;;;;;;;;5077629;28;20197;-73
2022/10/04 09:57:50;;;;;;;11.57;8.30;;;;;;;;;;5079428;28;20187;-73
2022/10/04 10:00:24;;;;;;;11.23;8.10;;;;;;;;;;5086781;28;20636;-74
2022/10/04 10:02:50;;;;;;;10.80;8.13;;;;;;;;;;5078019;28;20227;-73
2022/10/04 10:05:37;;;;;;;11.20;8.03;;;;;;;;;;5079214;28;20181;-73
2022/10/04 10:08:10;;;;;;;11.70;8.20;;;;;;;;;;5065953;28;20188;-74
2022/10/04 10:13:39;;;;;;;9.67;7.93;;;;;;;;;;5078715;28;20267;-76
2022/10/04 10:16:18;;;;;;;11.43;9.30;;;;;;;;;;5078905;28;20182;-75
2022/10/04 10:18:47;;;;;;;9.03;7.60;;;;;;;;;;5084731;28;20196;-77
2022/10/04 10:21:26;;;;;;;10.17;8.10;;;;;;;;;;5064496;28;20227;-76
2022/10/04 10:23:52;;;;;;;10.57;7.80;;;;;;;;;;5090556;28;20169;-76
2022/10/04 10:26:34;;;;;;;7.30;6.53;;;;;;;;;;5069309;28;20269;-75
2022/10/04 10:29:09;;;;;;;8.63;7.20;;;;;;;;;;5060482;28;20209;-75
2022/10/04 10:31:55;;;;;;;10.53;7.30;;;;;;;;;;5085101;28;20208;-76
2022/10/04 10:34:41;;;;;;;11.93;7.70;;;;;;;;;;5091180;28;20219;-75
2022/10/04 10:37:14;;;;;;;8.90;7.57;;;;;;;;;;5081759;28;20192;-75
2022/10/04 10:39:59;;;;;;;11.60;7.63;;;;;;;;;;5090922;28;20636;-75
2022/10/04 10:42:32;;;;;;;10.20;7.13;;;;;;;;;;5088235;28;20780;-76
2022/10/04 10:45:20;;;;;;;11.27;7.40;;;;;;;;;;5083159;28;20280;-75
2022/10/04 10:47:46;;;;;;;12.97;7.50;;;;;;;;;;5085500;28;20276;-76
2022/10/04 10:50:21;;;;;;;12.83;8.10;;;;;;;;;;5084199;28;20181;-75
2022/10/04 10:52:47;;;;;;;13.80;7.80;;;;;;;;;;5085652;28;20757;-76
2022/10/04 10:55:25;;;;;;;9.33;7.70;;;;;;;;;;5084393;28;20192;-77
2022/10/04 10:57:52;;;;;;;9.57;7.20;;;;;;;;;;5080545;28;20613;-77
2022/10/04 11:00:19;;;;;;;10.90;7.70;;;;;;;;;;5079151;28;20679;-77
2022/10/04 11:02:45;;;;;;;10.13;7.37;;;;;;;;;;5083559;28;20874;-77
2022/10/04 11:05:14;;;;;;;9.23;6.77;;;;;;;;;;5081388;28;20176;-76
2022/10/04 11:07:48;;;;;;;10.13;7.37;;;;;;;;;;5077905;28;20203;-76
2022/10/04 11:10:15;;;;;;;10.37;7.07;;;;;;;;;;5072741;28;20233;-77
2022/10/04 11:12:41;;;;;;;11.80;7.63;;;;;;;;;;5080246;28;20195;-74
2022/10/04 11:15:26;;;;;;;10.70;7.70;;;;;;;;;;5085228;28;20223;-72
2022/10/04 11:18:11;;;;;;;8.23;7.27;;;;;;;;;;5078902;28;20185;-82
2022/10/04 11:20:58;;;;;;;11.57;7.73;;;;;;;;;;5073932;28;20212;-77
2022/10/04 11:23:51;;;;;;;9.37;6.70;;;;;;;;;;5083084;28;20196;-77
2022/10/04 11:26:23;;;;;;;8.70;6.17;;;;;;;;;;5080259;28;20325;-77
2022/10/04 11:28:59;;;;;;;11.10;6.40;;;;;;;;;;5078180;28;20181;-76
2022/10/04 11:31:44;;;;;;;6.30;5.60;;;;;;;;;;5083121;28;20232;-76
2022/10/04 11:34:24;;;;;;;9.70;6.07;;;;;;;;;;5068725;28;20218;-77
2022/10/04 11:36:50;;;;;;;8.87;5.87;;;;;;;;;;5069569;28;20185;-76
2022/10/04 11:39:40;;;;;;;8.37;5.90;;;;;;;;;;5060060;28;20181;-76
2022/10/04 11:42:16;;;;;;;11.27;5.70;;;;;;;;;;5086199;28;20921;-76
2022/10/04 11:45:01;;;;;;;8.53;5.57;;;;;;;;;;5083794;28;20184;-76
2022/10/04 11:47:39;;;;;;;9.60;7.03;;;;;;;;;;5087021;28;20193;-76
2022/10/04 11:50:23;;;;;;;10.87;7.00;;;;;;;;;;5080107;28;20184;-76
2022/10/04 11:53:09;;;;;;;12.13;6.70;;;;;;;;;;5078254;28;20188;-77
2022/10/04 11:55:36;;;;;;;11.37;7.20;;;;;;;;;;5069449;28;20181;-78
2022/10/04 11:58:06;;;;;;;10.13;6.07;;;;;;;;;;5087003;28;20554;-76
2022/10/04 12:00:53;;;;;;;9.90;6.70;;;;;;;;;;5032337;28;20335;-79
2022/10/04 12:03:26;;;;;;;8.63;6.23;;;;;;;;;;5064854;28;20188;-84
2022/10/04 12:06:12;;;;;;;7.90;6.10;;;;;;;;;;5067158;28;20192;-76
2022/10/04 12:08:51;;;;;;;10.67;6.50;;;;;;;;;;5068287;28;20189;-76
2022/10/04 12:14:34;;;;;;;7.43;5.70;;;;;;;;;;5067319;28;20180;-76
2022/10/04 12:17:10;;;;;;;8.37;5.70;;;;;;;;;;5079040;28;20682;-75
2022/10/04 12:19:53;;;;;;;8.80;5.87;;;;;;;;;;5082868;28;20486;-75
2022/10/04 12:22:38;;;;;;;5.33;4.70;;;;;;;;;;5074029;28;20301;-75
2022/10/04 12:25:08;;;;;;;7.10;5.07;;;;;;;;;;5060359;28;20191;-75
2022/10/04 12:27:52;;;;;;;7.03;5.40;;;;;;;;;;5075970;28;20180;-75
2022/10/04 12:30:37;;;;;;;8.27;5.70;;;;;;;;;;5079490;28;20189;-75
2022/10/04 12:33:06;;;;;;;8.00;4.53;;;;;;;;;;5085143;28;20195;-75
2022/10/04 12:35:40;;;;;;;5.80;4.83;;;;;;;;;;5048074;28;20217;-75
2022/10/04 12:38:13;;;;;;;4.90;3.90;;;;;;;;;;5074067;28;20190;-75
2022/10/04 12:40:43;;;;;;;7.03;4.67;;;;;;;;;;5059490;28;20500;-75
2022/10/04 12:43:13;;;;;;;7.47;4.30;;;;;;;;;;5064325;28;20208;-75
2022/10/04 12:45:58;;;;;;;8.53;4.17;;;;;;;;;;5075731;28;20177;-75
2022/10/04 12:48:27;;;;;;;6.57;3.93;;;;;;;;;;5078472;28;20184;-75
2022/10/04 12:51:12;;;;;;;6.57;3.60;;;;;;;;;;5079549;28;20207;-75
2022/10/04 12:53:52;;;;;;;6.93;3.60;;;;;;;;;;5066177;28;20188;-75
2022/10/04 12:56:37;;;;;;;5.57;3.77;;;;;;;;;;5085164;28;20226;-75
2022/10/04 12:59:18;;;;;;;5.27;3.80;;;;;;;;;;5082273;28;20191;-75
2022/10/04 13:01:51;;;;;;;5.67;3.80;;;;;;;;;;5075894;28;20205;-75
2022/10/04 13:04:28;;;;;;;3.90;3.27;;;;;;;;;;5083316;28;20172;-75
2022/10/04 13:06:54;;;;;;;7.50;3.70;;;;;;;;;;5076354;28;20706;-75
2022/10/04 13:09:26;;;;;;;6.60;3.50;;;;;;;;;;5071611;28;20563;-75
2022/10/04 13:12:19;;;;;;;4.97;3.67;;;;;;;;;;5076765;28;20494;-75
2022/10/04 13:14:59;;;;;;;7.50;3.50;;;;;;;;;;5077301;28;20199;-75
2022/10/04 13:17:43;;;;;;;4.40;3.30;;;;;;;;;;5078700;28;20684;-75
2022/10/04 13:20:30;;;;;;;4.27;3.00;;;;;;;;;;5064635;28;20573;-75
2022/10/04 13:22:56;;;;;;;4.47;3.17;;;;;;;;;;5080351;28;20232;-75
2022/10/04 13:25:31;;;;;;;8.03;4.60;;;;;;;;;;5080373;28;20186;-75
2022/10/04 13:27:57;;;;;;;4.80;3.90;;;;;;;;;;5079928;28;20784;-75
2022/10/04 13:30:31;;;;;;;4.40;3.37;;;;;;;;;;5081027;28;20183;-75
2022/10/04 13:33:03;;;;;;;5.83;3.10;;;;;;;;;;5086990;28;20175;-75
2022/10/04 13:35:40;;;;;;;3.43;2.40;;;;;;;;;;5086728;28;20552;-75
2022/10/04 13:38:24;;;;;;;3.13;2.50;;;;;;;;;;5073707;28;20375;-75
2022/10/04 13:41:00;;;;;;;2.83;2.30;;;;;;;;;;5076401;28;20626;-75
2022/10/04 13:43:38;;;;;;;4.53;2.47;;;;;;;;;;5081277;28;20208;-75
2022/10/04 13:46:23;;;;;;;4.47;2.17;;;;;;;;;;5079518;28;20267;-75
2022/10/04 13:48:50;;;;;;;3.63;2.50;;;;;;;;;;5052052;28;20670;-77
2022/10/04 13:51:41;;;;;;;4.27;1.93;;;;;;;;;;5080715;28;20532;-75
2022/10/04 13:57:16;;;;;;;4.23;2.33;;;;;;;;;;5081264;28;20473;-75
2022/10/04 13:59:48;;;;;;;4.67;2.17;;;;;;;;;;5067089;28;20260;-76
2022/10/04 14:02:29;;;;;;;5.87;2.60;;;;;;;;;;5081073;28;20331;-75
2022/10/04 14:05:16;;;;;;;4.47;2.40;;;;;;;;;;5075131;28;20189;-75
2022/10/04 14:07:42;;;;;;;3.50;2.30;;;;;;;;;;5078526;28;20209;-75
2022/10/04 14:10:27;;;;;;;4.20;2.10;;;;;;;;;;5078535;28;20182;-75
2022/10/04 14:13:04;;;;;;;4.30;2.43;;;;;;;;;;5084131;28;20202;-76
2022/10/04 14:15:57;;;;;;;4.43;2.03;;;;;;;;;;5081286;28;20175;-75
2022/10/04 14:18:23;;;;;;;5.70;2.47;;;;;;;;;;5076987;28;20191;-75
2022/10/04 14:21:11;;;;;;;3.30;2.03;;;;;;;;;;5078401;28;20214;-75
2022/10/04 14:23:52;;;;;;;3.63;2.23;;;;;;;;;;5084405;28;20240;-75
2022/10/04 14:26:37;;;;;;;3.37;2.30;;;;;;;;;;5084666;28;20175;-75
2022/10/04 14:29:30;;;;;;;4.10;2.20;;;;;;;;;;5074033;28;20273;-75
2022/10/04 14:31:56;;;;;;;2.57;1.87;;;;;;;;;;5067420;28;20455;-75
2022/10/04 14:34:41;;;;;;;4.80;2.20;;;;;;;;;;5063451;28;20585;-75
2022/10/04 14:37:10;;;;;;;3.77;2.27;;;;;;;;;;5077994;28;20535;-75
2022/10/04 14:39:48;;;;;;;3.73;2.30;;;;;;;;;;5058383;28;20192;-75
2022/10/04 14:42:30;;;;;;;4.20;2.10;;;;;;;;;;5074923;28;20241;-75
2022/10/04 14:45:03;;;;;;;3.03;2.30;;;;;;;;;;5067889;28;20186;-75
2022/10/04 14:47:48;;;;;;;3.40;2.00;;;;;;;;;;5059152;28;20308;-75
2022/10/04 14:50:24;;;;;;;3.40;2.20;;;;;;;;;;5083313;28;20578;-75
2022/10/04 14:53:05;;;;;;;2.23;1.80;;;;;;;;;;5061338;28;20199;-75
2022/10/04 14:55:31;;;;;;;4.90;2.37;;;;;;;;;;5069337;28;20192;-75
2022/10/04 14:58:01;;;;;;;3.87;2.30;;;;;;;;;;5081609;28;20664;-75
2022/10/04 15:00:34;;;;;;;6.07;2.00;;;;;;;;;;5082595;28;20189;-75
2022/10/04 15:03:04;;;;;;;3.63;2.40;;;;;;;;;;5060122;28;20204;-75
2022/10/04 15:05:33;;;;;;;4.57;2.40;;;;;;;;;;5077009;28;20698;-74
2022/10/04 15:08:14;;;;;;;4.00;2.47;;;;;;;;;;5058266;28;20523;-74
2022/10/04 15:10:56;;;;;;;4.20;2.40;;;;;;;;;;5075949;28;20270;-74
2022/10/04 15:13:22;;;;;;;2.93;2.37;;;;;;;;;;5078620;28;20286;-74
2022/10/04 15:16:04;;;;;;;5.60;2.30;;;;;;;;;;5078313;28;20225;-74
2022/10/04 15:18:36;;;;;;;4.33;2.17;;;;;;;;;;5076434;28;20290;-74
2022/10/04 15:21:21;;;;;;;3.83;2.20;;;;;;;;;;5078725;28;20204;-74
2022/10/04 15:23:56;;;;;;;4.37;2.50;;;;;;;;;;5078520;28;20195;-74
2022/10/04 15:26:23;;;;;;;3.10;2.23;;;;;;;;;;5059731;28;20260;-74
2022/10/04 15:28:49;;;;;;;3.80;2.30;;;;;;;;;;5078445;28;20193;-75
2022/10/04 15:31:28;;;;;;;4.90;2.73;;;;;;;;;;5077500;28;20204;-74
2022/10/04 15:34:19;;;;;;;5.20;2.40;;;;;;;;;;5078550;28;20181;-74
2022/10/04 15:37:00;;;;;;;3.13;2.30;;;;;;;;;;5076194;28;20185;-74
2022/10/04 15:39:29;;;;;;;11.37;2.70;;;;;;;;;;5078243;28;20546;-75